createdAt,value
2019-04-23T00:00:45.314Z,56.40
2019-04-23T00:02:53.681Z,56.52
2019-04-23T00:05:02.141Z,56.77
2019-04-23T00:07:15.779Z,56.93
2019-04-23T00:09:23.887Z,57.15
2019-04-23T00:11:32.406Z,57.07
2019-04-23T00:13:39.403Z,57.10
2019-04-23T00:15:59.909Z,57.04
2019-04-23T00:17:55.892Z,56.99
2019-04-23T00:20:09.599Z,56.94
2019-04-23T00:22:23.599Z,57.01
2019-04-23T00:25:19.301Z,57.08
2019-04-23T00:26:54.862Z,56.96
2019-04-23T00:29:05.346Z,56.94
2019-04-23T00:31:15.233Z,56.86
2019-04-23T00:33:25.075Z,56.79
2019-04-23T00:35:27.365Z,56.85
2019-04-23T00:37:35.593Z,56.78
2019-04-23T00:39:46.761Z,56.78
2019-04-23T00:41:50.485Z,56.72
2019-04-23T00:44:02.671Z,56.75
2019-04-23T00:46:06.303Z,56.76
2019-04-23T00:48:26.133Z,56.57
2019-04-23T00:50:30.352Z,56.82
2019-04-23T00:52:35.345Z,56.90
2019-04-23T00:56:54.497Z,56.87
2019-04-23T00:58:55.002Z,57.01
2019-04-23T01:01:03.127Z,57.14
2019-04-23T01:03:12.546Z,57.16
2019-04-23T01:05:27.769Z,57.11
2019-04-23T01:07:31.832Z,57.08
2019-04-23T01:09:45.744Z,56.70
2019-04-23T01:11:43.423Z,56.45
2019-04-23T01:14:11.425Z,56.42
2019-04-23T01:16:08.563Z,56.55
2019-04-23T01:20:50.227Z,56.66
2019-04-23T01:22:40.224Z,56.52
2019-04-23T01:25:05.392Z,56.46
2019-04-23T01:29:48.711Z,56.25
2019-04-23T01:31:47.903Z,56.43
2019-04-23T01:33:53.190Z,56.36
2019-04-23T01:36:23.468Z,56.32
2019-04-23T01:38:11.227Z,56.40
2019-04-23T01:42:35.485Z,56.18
2019-04-23T01:44:42.469Z,56.02
2019-04-23T01:48:52.282Z,55.84
2019-04-23T01:50:56.059Z,55.82
2019-04-23T01:55:21.216Z,55.94
2019-04-23T01:57:30.654Z,55.79
2019-04-23T01:59:31.859Z,55.81
2019-04-23T02:01:47.911Z,55.63
2019-04-23T02:03:58.274Z,55.72
2019-04-23T02:06:03.225Z,55.71
2019-04-23T02:10:25.898Z,55.50
2019-04-23T02:12:28.597Z,55.46
2019-04-23T02:14:36.465Z,55.65
2019-04-23T02:16:57.911Z,55.64
2019-04-23T02:18:56.787Z,55.36
2019-04-23T02:20:59.557Z,55.41
2019-04-23T02:23:24.652Z,55.17
2019-04-23T02:27:47.084Z,55.30
2019-04-23T02:30:11.912Z,55.39
2019-04-23T02:32:01.432Z,55.51
2019-04-23T02:38:30.855Z,55.29
2019-04-23T02:40:48.840Z,55.29
2019-04-23T02:44:56.232Z,54.77
2019-04-23T02:47:10.278Z,54.80
2019-04-23T02:49:27.236Z,54.64
2019-04-23T02:51:17.575Z,54.63
2019-04-23T02:53:37.548Z,54.45
2019-04-23T02:55:42.869Z,54.63
2019-04-23T03:02:14.818Z,54.48
2019-04-23T03:06:16.710Z,54.57
2019-04-23T03:08:26.764Z,54.42
2019-04-23T03:10:41.871Z,54.53
2019-04-23T03:12:48.960Z,54.70
2019-04-23T03:14:49.959Z,54.75
2019-04-23T03:16:56.550Z,54.35
2019-04-23T03:19:23.661Z,54.58
2019-04-23T03:23:49.976Z,54.17
2019-04-23T03:26:13.855Z,54.30
2019-04-23T03:27:55.882Z,54.14
2019-04-23T03:30:16.706Z,54.04
2019-04-23T03:35:09.564Z,53.99
2019-04-23T03:37:11.069Z,54.43
2019-04-23T03:41:01.020Z,54.38
2019-04-23T03:45:16.660Z,53.82
2019-04-23T03:49:30.483Z,53.65
2019-04-23T03:51:38.408Z,53.74
2019-04-23T03:55:56.229Z,53.16
2019-04-23T04:00:12.619Z,52.66
2019-04-23T04:02:31.000Z,52.80
2019-04-23T04:04:25.185Z,53.14
2019-04-23T04:06:45.472Z,51.57
2019-04-23T04:08:33.908Z,50.67
2019-04-23T04:10:51.991Z,49.55
2019-04-23T04:13:15.734Z,48.57
2019-04-23T04:15:07.777Z,46.18
2019-04-23T04:17:13.760Z,44.05
2019-04-23T04:23:43.718Z,40.71
2019-04-23T04:25:53.486Z,41.47
2019-04-23T04:28:03.484Z,44.18
2019-04-23T04:32:14.837Z,47.06
2019-04-23T04:34:43.842Z,47.59
2019-04-23T04:38:42.353Z,48.15
2019-04-23T04:40:45.647Z,48.15
2019-04-23T04:47:10.000Z,48.03
2019-04-23T04:55:45.092Z,47.29
2019-04-23T04:57:52.143Z,47.25
2019-04-23T05:02:16.240Z,46.82
2019-04-23T05:04:19.944Z,46.80
2019-04-23T05:06:44.291Z,46.60
2019-04-23T05:08:48.251Z,46.33
2019-04-23T05:11:07.765Z,46.25
2019-04-23T05:12:45.190Z,45.90
2019-04-23T05:17:04.539Z,45.37
2019-04-23T05:19:27.304Z,45.36
2019-04-23T05:23:50.921Z,44.85
2019-04-23T05:26:08.547Z,44.21
2019-04-23T05:28:04.170Z,44.26
2019-04-23T05:30:07.769Z,43.79
2019-04-23T05:32:12.031Z,43.39
2019-04-23T05:34:16.960Z,43.49
2019-04-23T05:36:30.750Z,43.32
2019-04-23T05:40:53.630Z,42.46
2019-04-23T05:42:58.543Z,42.22
2019-04-23T05:45:06.108Z,42.18
2019-04-23T05:47:16.020Z,41.97
2019-04-23T05:49:45.828Z,41.60
2019-04-23T05:51:42.083Z,40.96
2019-04-23T05:53:40.792Z,40.70
2019-04-23T05:55:55.530Z,40.41
2019-04-23T05:58:03.263Z,40.35
2019-04-23T06:00:10.669Z,39.87
2019-04-23T06:02:13.323Z,39.04
2019-04-23T06:08:45.981Z,37.85
2019-04-23T06:10:58.139Z,37.14
2019-04-23T06:13:06.308Z,36.56
2019-04-23T06:15:18.055Z,36.13
2019-04-23T06:17:29.825Z,35.27
2019-04-23T06:19:21.321Z,35.13
2019-04-23T06:21:44.736Z,35.20
2019-04-23T06:28:03.727Z,34.44
2019-04-23T06:30:08.406Z,33.95
2019-04-23T06:32:22.874Z,33.55
2019-04-23T06:40:53.987Z,32.66
2019-04-23T06:43:18.363Z,32.37
2019-04-23T06:45:17.541Z,32.50
2019-04-23T06:47:27.700Z,32.09
2019-04-23T06:49:47.578Z,31.44
2019-04-23T06:51:53.418Z,31.22
2019-04-23T06:53:51.297Z,31.70
2019-04-23T06:56:03.880Z,31.69
2019-04-23T06:58:15.717Z,30.28
2019-04-23T07:00:23.929Z,30.76
2019-04-23T07:02:22.410Z,30.44
2019-04-23T07:06:48.586Z,30.21
2019-04-23T07:09:05.280Z,29.89
2019-04-23T07:11:14.265Z,28.97
2019-04-23T07:13:10.382Z,29.42
2019-04-23T07:15:33.491Z,29.63
2019-04-23T07:17:21.344Z,29.63
2019-04-23T07:19:31.723Z,29.31
2019-04-23T07:21:33.496Z,29.71
2019-04-23T07:23:53.622Z,29.79
2019-04-23T07:25:55.930Z,29.26
2019-04-23T07:28:07.113Z,28.80
2019-04-23T07:30:13.619Z,28.30
2019-04-23T07:32:15.189Z,28.91
2019-04-23T07:34:24.427Z,28.15
2019-04-23T07:36:35.542Z,28.32
2019-04-23T07:38:56.381Z,28.45
2019-04-23T07:40:58.747Z,28.54
2019-04-23T07:43:03.604Z,28.51
2019-04-23T07:45:35.060Z,27.69
2019-04-23T07:48:06.826Z,28.17
2019-04-23T07:50:20.571Z,27.84
2019-04-23T07:52:14.929Z,27.31
2019-04-23T07:54:25.680Z,27.33
2019-04-23T07:56:27.975Z,27.12
2019-04-23T07:58:46.362Z,27.06
2019-04-23T08:00:45.496Z,26.85
2019-04-23T08:03:01.078Z,26.74
2019-04-23T08:05:11.484Z,26.61
2019-04-23T08:07:09.623Z,25.99
2019-04-23T08:09:22.327Z,26.48
2019-04-23T08:13:42.342Z,26.10
2019-04-23T08:15:42.581Z,26.63
2019-04-23T08:17:41.485Z,26.50
2019-04-23T08:20:03.097Z,26.54
2019-04-23T08:22:12.521Z,26.79
2019-04-23T08:24:38.549Z,26.74
2019-04-23T08:26:50.219Z,26.48
2019-04-23T08:29:07.807Z,26.41
2019-04-23T08:31:00.787Z,26.85
2019-04-23T08:33:23.458Z,26.81
2019-04-23T08:35:33.971Z,26.80
2019-04-23T08:39:41.111Z,26.12
2019-04-23T08:41:59.641Z,26.46
2019-04-23T08:43:57.438Z,26.52
2019-04-23T08:46:26.911Z,25.80
2019-04-23T08:50:40.047Z,25.41
2019-04-23T08:52:53.961Z,25.39
2019-04-23T08:55:08.668Z,25.09
2019-04-23T08:59:17.777Z,24.81
2019-04-23T09:01:52.432Z,25.08
2019-04-23T09:05:46.785Z,24.79
2019-04-23T09:07:56.896Z,24.52
2019-04-23T09:09:59.013Z,24.40
2019-04-23T09:14:08.912Z,24.51
2019-04-23T09:16:28.422Z,24.35
2019-04-23T09:18:26.330Z,24.22
2019-04-23T09:20:31.254Z,24.43
2019-04-23T09:22:43.578Z,24.88
2019-04-23T09:24:55.534Z,24.59
2019-04-23T09:27:09.716Z,24.68
2019-04-23T09:29:12.066Z,24.15
2019-04-23T09:34:00.030Z,24.16
2019-04-23T09:35:59.793Z,23.97
2019-04-23T09:50:01.250Z,23.93
2019-04-23T09:54:21.864Z,24.22
2019-04-23T09:56:30.236Z,24.26
2019-04-23T09:58:30.048Z,23.86
2019-04-23T10:02:45.684Z,23.91
2019-04-23T10:04:51.971Z,23.67
2019-04-23T10:06:58.682Z,24.02
2019-04-23T10:08:57.682Z,24.02
2019-04-23T10:11:00.419Z,23.39
2019-04-23T10:13:08.262Z,24.15
2019-04-23T10:15:33.035Z,24.30
2019-04-23T10:17:36.067Z,24.07
2019-04-23T10:19:42.762Z,24.11
2019-04-23T10:21:49.328Z,24.01
2019-04-23T10:23:57.101Z,24.14
2019-04-23T10:26:03.916Z,23.89
2019-04-23T10:28:20.425Z,24.08
2019-04-23T10:30:26.998Z,24.76
2019-04-23T10:32:33.590Z,24.98
2019-04-23T10:34:52.425Z,24.87
2019-04-23T10:36:49.345Z,24.93
2019-04-23T10:39:02.637Z,24.73
2019-04-23T10:41:04.412Z,24.76
2019-04-23T10:43:11.274Z,25.21
2019-04-23T10:45:57.614Z,25.04
2019-04-23T10:50:47.631Z,25.05
2019-04-23T10:53:02.550Z,24.91
2019-04-23T10:55:03.242Z,24.98
2019-04-23T10:57:04.014Z,25.58
2019-04-23T10:59:40.358Z,26.06
2019-04-23T11:01:50.069Z,25.76
2019-04-23T11:06:23.780Z,26.06
2019-04-23T11:08:30.953Z,26.08
2019-04-23T11:10:42.487Z,26.23
2019-04-23T11:13:10.800Z,26.20
2019-04-23T11:17:15.608Z,26.57
2019-04-23T11:19:24.827Z,26.76
2019-04-23T11:23:46.677Z,27.04
2019-04-23T11:25:44.786Z,26.88
2019-04-23T11:28:02.908Z,26.84
2019-04-23T11:30:15.102Z,27.01
2019-04-23T11:38:09.130Z,27.30
2019-04-23T11:40:36.939Z,26.99
2019-04-23T11:42:57.860Z,26.55
2019-04-23T11:45:10.529Z,26.75
2019-04-23T11:47:14.275Z,26.85
2019-04-23T11:49:34.586Z,26.96
2019-04-23T11:51:46.051Z,26.65
2019-04-23T11:53:45.555Z,26.26
2019-04-23T11:58:07.671Z,26.20
2019-04-23T12:00:05.584Z,26.65
2019-04-23T12:02:35.473Z,26.18
2019-04-23T12:04:37.120Z,26.13
2019-04-23T12:06:41.886Z,26.29
2019-04-23T12:08:58.921Z,25.87
2019-04-23T12:11:39.356Z,26.01
2019-04-23T12:13:28.531Z,25.66
2019-04-23T12:17:42.228Z,25.49
2019-04-23T12:19:57.525Z,25.64
2019-04-23T12:22:01.442Z,25.59
2019-04-23T12:26:23.751Z,25.05
2019-04-23T12:28:25.870Z,25.23
2019-04-23T12:30:36.316Z,25.31
2019-04-23T12:32:48.773Z,24.95
2019-04-23T12:36:50.952Z,24.91
2019-04-23T12:39:11.344Z,25.28
2019-04-23T12:41:17.483Z,25.04
2019-04-23T12:43:20.686Z,24.88
2019-04-23T12:45:31.712Z,25.45
2019-04-23T12:50:13.268Z,24.96
2019-04-23T12:51:55.498Z,25.24
2019-04-23T12:54:07.745Z,25.41
2019-04-23T12:56:08.885Z,25.31
2019-04-23T12:58:22.079Z,25.55
2019-04-23T13:00:32.245Z,25.12
2019-04-23T13:02:52.131Z,25.62
2019-04-23T13:06:57.839Z,26.31
2019-04-23T13:09:17.862Z,26.41
2019-04-23T13:11:14.033Z,26.24
2019-04-23T13:17:58.838Z,25.92
2019-04-23T13:19:56.061Z,25.85
2019-04-23T13:22:21.778Z,25.91
2019-04-23T13:24:11.330Z,25.83
2019-04-23T13:26:24.365Z,25.40
2019-04-23T13:30:55.762Z,25.09
2019-04-23T13:32:58.924Z,24.94
2019-04-23T13:35:19.843Z,25.18
2019-04-23T13:37:20.200Z,25.48
2019-04-23T13:39:30.925Z,25.14
2019-04-23T13:41:23.382Z,24.99
2019-04-23T13:48:02.869Z,25.00
2019-04-23T13:50:20.255Z,25.06
2019-04-23T13:52:43.007Z,24.64
2019-04-23T13:54:28.418Z,25.28
2019-04-23T13:56:49.258Z,25.44
2019-04-23T13:58:43.373Z,25.89
2019-04-23T14:01:01.091Z,25.97
2019-04-23T14:02:56.429Z,26.06
2019-04-23T14:05:17.776Z,26.05
2019-04-23T14:07:28.762Z,25.95
2019-04-23T14:09:37.408Z,26.55
2019-04-23T14:11:30.844Z,26.25
2019-04-23T14:18:27.049Z,25.25
2019-04-23T14:20:19.007Z,24.94
2019-04-23T14:24:38.832Z,25.33
2019-04-23T14:26:34.881Z,25.23
2019-04-23T14:28:44.770Z,25.09
2019-04-23T14:31:03.039Z,25.29
2019-04-23T14:33:12.298Z,25.41
2019-04-23T14:37:23.596Z,25.38
2019-04-23T14:39:33.182Z,25.61
2019-04-23T14:42:03.670Z,25.41
2019-04-23T14:43:56.594Z,25.13
2019-04-23T14:46:38.504Z,25.25
2019-04-23T14:48:14.911Z,24.69
2019-04-23T14:50:32.300Z,24.33
2019-04-23T14:52:39.061Z,24.63
2019-04-23T14:55:28.246Z,24.61
2019-04-23T14:57:00.749Z,24.32
2019-04-23T14:59:07.157Z,24.36
2019-04-23T15:03:44.541Z,23.92
2019-04-23T15:05:38.395Z,24.22
2019-04-23T15:09:57.370Z,24.20
2019-04-23T15:14:29.522Z,24.20
2019-04-23T15:18:37.832Z,24.01
2019-04-23T15:21:08.634Z,24.12
2019-04-23T15:23:25.683Z,24.17
2019-04-23T15:29:15.794Z,24.87
2019-04-23T15:31:48.778Z,24.77
2019-04-23T15:36:12.971Z,25.06
2019-04-23T15:38:27.057Z,24.94
2019-04-23T15:44:39.446Z,24.83
2019-04-23T15:46:51.063Z,24.99
2019-04-23T15:49:07.171Z,25.36
2019-04-23T15:51:11.790Z,25.35
2019-04-23T15:53:07.862Z,25.62
2019-04-23T15:55:22.425Z,25.50
2019-04-23T15:57:45.190Z,25.62
2019-04-23T15:59:44.099Z,25.57
2019-04-23T16:01:39.698Z,25.69
2019-04-23T16:03:29.021Z,25.47
2019-04-23T16:05:37.197Z,25.75
2019-04-23T16:08:01.728Z,25.78
2019-04-23T16:12:27.747Z,25.58
2019-04-23T16:14:46.076Z,25.40
2019-04-23T16:16:58.310Z,25.40
2019-04-23T16:19:20.771Z,25.31
2019-04-23T16:21:32.267Z,25.39
2019-04-23T16:23:26.403Z,24.99
2019-04-23T16:25:36.529Z,25.13
2019-04-23T16:27:53.026Z,25.17
2019-04-23T16:30:15.931Z,24.94
2019-04-23T16:32:18.856Z,24.62
2019-04-23T16:34:29.177Z,24.53
2019-04-23T16:36:38.884Z,24.51
2019-04-23T16:40:47.644Z,24.65
2019-04-23T16:43:08.650Z,24.77
2019-04-23T16:45:14.833Z,24.56
2019-04-23T16:47:24.608Z,24.84
2019-04-23T16:51:38.817Z,25.08
2019-04-23T16:53:44.520Z,24.66
2019-04-23T16:56:18.563Z,24.50
2019-04-23T16:58:21.434Z,24.55
2019-04-23T17:02:28.068Z,24.75
2019-04-23T17:04:38.622Z,24.86
2019-04-23T17:06:54.863Z,24.97
2019-04-23T17:16:06.677Z,25.09
2019-04-23T17:18:03.103Z,25.24
2019-04-23T17:20:25.217Z,25.24
2019-04-23T17:22:26.044Z,25.07
2019-04-23T17:25:04.255Z,25.09
2019-04-23T17:26:46.472Z,25.46
2019-04-23T17:28:54.414Z,25.32
2019-04-23T17:31:32.777Z,25.55
2019-04-23T17:33:31.444Z,25.23
2019-04-23T17:36:07.006Z,25.17
2019-04-23T17:38:09.057Z,25.41
2019-04-23T17:48:58.204Z,25.37
2019-04-23T17:51:11.453Z,25.37
2019-04-23T17:53:23.299Z,25.15
2019-04-23T17:55:32.503Z,25.05
2019-04-23T18:00:09.944Z,25.52
2019-04-23T18:02:27.348Z,25.54
2019-04-23T18:08:26.795Z,25.61
2019-04-23T18:10:51.670Z,25.71
2019-04-23T18:12:53.794Z,25.88
2019-04-23T18:15:00.362Z,25.82
2019-04-23T18:17:13.393Z,25.85
2019-04-23T18:19:16.802Z,26.13
2019-04-23T18:22:02.199Z,26.18
2019-04-23T18:24:16.480Z,26.17
2019-04-23T18:26:24.852Z,26.23
2019-04-23T18:28:29.701Z,26.41
2019-04-23T18:30:42.182Z,26.32
2019-04-23T18:33:33.844Z,26.37
2019-04-23T18:35:21.508Z,26.05
2019-04-23T18:37:25.797Z,26.26
2019-04-23T18:39:32.934Z,26.28
2019-04-23T18:41:43.303Z,26.45
2019-04-23T18:43:56.341Z,26.54
2019-04-23T18:46:08.987Z,26.71
2019-04-23T18:50:48.870Z,27.11
2019-04-23T18:53:00.694Z,27.16
2019-04-23T18:55:04.146Z,27.29
2019-04-23T18:57:12.896Z,27.36
2019-04-23T18:59:30.437Z,27.51
2019-04-23T19:01:37.392Z,27.63
2019-04-23T19:10:57.973Z,27.99
2019-04-23T19:13:14.154Z,28.15
2019-04-23T19:17:46.663Z,28.06
2019-04-23T19:19:48.076Z,28.18
2019-04-23T19:24:09.551Z,28.13
2019-04-23T19:26:41.751Z,28.11
2019-04-23T19:31:14.730Z,28.37
2019-04-23T19:33:13.611Z,28.26
2019-04-23T19:35:42.000Z,28.45
2019-04-23T19:37:44.433Z,28.53
2019-04-23T19:39:55.052Z,28.49
2019-04-23T19:44:02.861Z,28.72
2019-04-23T19:46:41.857Z,28.62
2019-04-23T19:50:56.290Z,28.62
2019-04-23T19:53:04.477Z,28.75
2019-04-23T19:57:23.179Z,28.65
2019-04-23T19:59:29.904Z,28.88
2019-04-23T20:01:47.206Z,28.85
2019-04-23T20:05:55.627Z,29.18
2019-04-23T20:10:12.343Z,28.78
2019-04-23T20:12:26.215Z,28.81
2019-04-23T20:14:41.694Z,28.85
2019-04-23T20:17:04.481Z,28.97
2019-04-23T20:19:07.236Z,29.03
2019-04-23T20:23:26.527Z,28.95
2019-04-23T20:25:57.087Z,29.13
2019-04-23T20:27:42.422Z,28.81
2019-04-23T20:34:37.386Z,28.56
2019-04-23T20:36:46.563Z,28.75
2019-04-23T20:39:02.629Z,28.72
2019-04-23T20:41:08.328Z,28.76
2019-04-23T20:43:05.753Z,28.96
2019-04-23T20:45:21.498Z,29.17
2019-04-23T20:47:27.254Z,29.27
2019-04-23T20:49:44.282Z,29.33
2019-04-23T20:51:54.949Z,29.38
2019-04-23T20:54:02.146Z,29.36
2019-04-23T20:56:07.172Z,29.55
2019-04-23T20:58:20.877Z,29.60
2019-04-23T21:00:32.501Z,29.65
2019-04-23T21:05:03.240Z,29.84
2019-04-23T21:07:12.192Z,30.00
2019-04-23T21:11:14.126Z,29.98
2019-04-23T21:13:43.401Z,29.79
2019-04-23T21:22:13.534Z,30.19
2019-04-23T21:24:11.287Z,30.30
2019-04-23T21:26:22.613Z,30.36
2019-04-23T21:28:37.208Z,30.18
2019-04-23T21:31:03.428Z,30.35
2019-04-23T21:32:56.233Z,30.36
2019-04-23T21:35:07.723Z,30.53
2019-04-23T21:37:04.510Z,30.67
2019-04-23T21:41:44.818Z,30.64
2019-04-23T21:44:05.636Z,30.75
2019-04-23T21:54:21.652Z,31.40
2019-04-23T22:00:59.446Z,31.65
2019-04-23T22:05:09.030Z,31.86
2019-04-23T22:07:16.767Z,31.99
2019-04-23T22:09:32.251Z,32.00
2019-04-23T22:14:05.518Z,32.24
2019-04-23T22:16:01.346Z,32.22
2019-04-23T22:18:00.222Z,32.47
2019-04-23T22:22:11.189Z,32.70
2019-04-23T22:24:19.448Z,32.92
2019-04-23T22:26:36.305Z,32.86
2019-04-23T22:28:57.752Z,33.05
2019-04-23T22:31:03.713Z,33.15
2019-04-23T22:33:11.241Z,32.94
2019-04-23T22:35:07.575Z,33.06
2019-04-23T22:37:19.412Z,33.23
2019-04-23T22:39:31.616Z,33.09
2019-04-23T22:41:46.216Z,33.24
2019-04-23T22:43:52.979Z,33.30
2019-04-23T22:45:59.992Z,33.21
2019-04-23T22:48:04.659Z,33.31
2019-04-23T22:50:16.340Z,33.44
2019-04-23T22:52:26.544Z,33.56
2019-04-23T22:54:21.169Z,33.58
2019-04-23T22:56:44.311Z,33.66
2019-04-23T22:59:05.606Z,33.64
2019-04-23T23:01:10.670Z,33.62
2019-04-23T23:03:22.641Z,33.84
2019-04-23T23:05:39.821Z,33.84
2019-04-23T23:07:49.639Z,33.98
2019-04-23T23:09:55.731Z,34.22
2019-04-23T23:16:07.173Z,34.24
2019-04-23T23:18:19.669Z,34.09
2019-04-23T23:22:41.065Z,34.47
2019-04-23T23:24:46.045Z,34.35
2019-04-23T23:26:54.294Z,34.38
2019-04-23T23:28:55.390Z,34.40
2019-04-23T23:31:18.717Z,34.62
2019-04-23T23:33:36.575Z,34.73
2019-04-23T23:37:34.587Z,34.75
2019-04-23T23:39:54.294Z,34.81
2019-04-23T23:44:24.438Z,34.96
2019-04-23T23:46:23.701Z,35.13
2019-04-23T23:48:12.871Z,35.34
2019-04-23T23:50:30.321Z,35.21
2019-04-23T23:52:40.949Z,35.51
2019-04-23T23:54:43.802Z,35.66
2019-04-23T23:56:58.361Z,35.60
2019-04-23T23:59:04.238Z,35.50
